Terminal Aerodrome Forecast
Issued by NWS

Home | Current Version | Previous Version | Text Only | Print | Product List | Glossary On
Versions: 1 2 3 4 5 6 7 8 9 10 11 12 13 14 15 16 17 18 19 20 21 22 23 24 25 26 27 28
000
FTUS41 KBOX 310535
TAFBED
TAF
KBED 310535Z 3106/0106 21006KT P6SM BKN035
     FM310700 21007KT P6SM OVC020
     FM311100 22007KT P6SM BKN035
     FM311500 22009KT P6SM BKN025
     FM311700 22010KT P6SM BKN150
     FM010100 21008KT 3SM -SHRA BR OVC060=

USA.gov is the U.S. government's official web portal to all federal, state and local government web resources and services.